createdAt,value
2019-04-10T00:04:23.215Z,99947.80
2019-04-10T00:09:29.183Z,99945.59
2019-04-10T00:14:34.588Z,99944.66
2019-04-10T00:19:40.069Z,99947.98
2019-04-10T00:24:46.254Z,99948.66
2019-04-10T00:29:52.312Z,99952.84
2019-04-10T00:34:58.213Z,99952.28
2019-04-10T00:40:03.655Z,99965.62
2019-04-10T00:45:09.398Z,99959.34
2019-04-10T00:50:14.755Z,99963.17
2019-04-10T00:55:20.136Z,99959.91
2019-04-10T01:00:25.599Z,99974.86
2019-04-10T01:05:31.123Z,99973.19
2019-04-10T01:10:36.733Z,99970.97
2019-04-10T01:15:42.705Z,99975.21
2019-04-10T01:20:48.084Z,99987.23
2019-04-10T01:25:53.503Z,99981.87
2019-04-10T01:30:59.160Z,99982.56
2019-04-10T01:36:04.853Z,99982.95
2019-04-10T01:41:10.304Z,99987.44
2019-04-10T01:46:15.922Z,99985.42
2019-04-10T01:51:21.445Z,99990.50
2019-04-10T01:56:31.614Z,99989.25
2019-04-10T02:01:38.824Z,99991.10
2019-04-10T02:06:45.181Z,99993.44
2019-04-10T02:11:50.770Z,100004.69
2019-04-10T02:16:57.028Z,100000.44
2019-04-10T02:22:02.474Z,100008.69
2019-04-10T02:27:07.920Z,100017.74
2019-04-10T02:32:14.566Z,100020.00
2019-04-10T02:37:19.925Z,100021.14
2019-04-10T02:42:26.617Z,100019.73
2019-04-10T02:47:32.447Z,100027.91
2019-04-10T02:52:40.143Z,100025.79
2019-04-10T02:57:45.913Z,100028.68
2019-04-10T03:02:54.805Z,100034.48
2019-04-10T03:08:00.321Z,100033.00
2019-04-10T03:13:05.935Z,100034.00
2019-04-10T03:18:11.248Z,100035.47
2019-04-10T03:23:17.563Z,100036.43
2019-04-10T03:28:23.034Z,100040.16
2019-04-10T03:33:39.686Z,100039.81
2019-04-10T03:38:55.316Z,100045.65
2019-04-10T03:43:50.921Z,100051.07
2019-04-10T03:48:56.387Z,100062.52
2019-04-10T03:54:02.619Z,100060.55
2019-04-10T03:59:08.391Z,100056.08
2019-04-10T04:04:13.914Z,100061.33
2019-04-10T04:09:19.614Z,100062.15
2019-04-10T04:14:24.882Z,100053.91
2019-04-10T04:19:31.069Z,100051.28
2019-04-10T04:24:36.415Z,100053.45
2019-04-10T04:29:41.656Z,100060.62
2019-04-10T04:34:47.464Z,100063.31
2019-04-10T04:39:52.856Z,100059.94
2019-04-10T04:44:58.346Z,100055.13
2019-04-10T04:50:03.714Z,100064.40
2019-04-10T04:55:10.073Z,100070.91
2019-04-10T05:00:15.656Z,100081.79
2019-04-10T05:05:21.014Z,100088.02
2019-04-10T05:10:26.315Z,100100.06
2019-04-10T05:15:31.555Z,100104.66
2019-04-10T05:20:44.170Z,100105.55
2019-04-10T05:25:43.777Z,100107.73
2019-04-10T05:30:49.107Z,100108.55
2019-04-10T05:35:54.993Z,100109.88
2019-04-10T05:41:01.388Z,100114.75
2019-04-10T05:46:07.150Z,100113.51
2019-04-10T05:51:12.618Z,100117.88
2019-04-10T05:56:19.023Z,100123.21
2019-04-10T06:01:33.239Z,100129.69
2019-04-10T06:06:32.631Z,100139.20
2019-04-10T06:11:39.326Z,100148.35
2019-04-10T06:16:44.929Z,100140.58
2019-04-10T06:21:50.449Z,100144.30
2019-04-10T06:26:56.178Z,100153.13
2019-04-10T06:32:01.771Z,100162.13
2019-04-10T06:37:08.089Z,100165.23
2019-04-10T06:42:14.240Z,100171.60
2019-04-10T06:47:20.321Z,100173.27
2019-04-10T06:52:25.645Z,100173.73
2019-04-10T06:57:30.995Z,100180.45
2019-04-10T07:02:38.956Z,100183.86
2019-04-10T07:07:51.378Z,100190.57
2019-04-10T07:12:51.381Z,100195.38
2019-04-10T07:17:56.811Z,100196.66
2019-04-10T07:23:03.039Z,100198.32
2019-04-10T07:28:10.499Z,100201.31
2019-04-10T07:33:18.057Z,100195.24
2019-04-10T07:38:22.862Z,100199.16
2019-04-10T07:43:29.487Z,100206.81
2019-04-10T07:48:35.623Z,100206.16
2019-04-10T07:53:41.468Z,100215.47
2019-04-10T07:58:46.908Z,100215.95
2019-04-10T08:03:53.009Z,100222.98
2019-04-10T08:08:59.295Z,100212.05
2019-04-10T08:14:06.776Z,100213.81
2019-04-10T08:19:12.410Z,100214.30
2019-04-10T08:24:18.201Z,100219.44
2019-04-10T08:29:23.981Z,100213.84
2019-04-10T08:34:29.315Z,100222.09
2019-04-10T08:39:41.170Z,100227.93
2019-04-10T08:44:42.458Z,100228.98
2019-04-10T08:49:47.971Z,100239.78
2019-04-10T08:54:53.375Z,100247.63
2019-04-10T08:59:58.930Z,100247.78
2019-04-10T09:05:05.603Z,100258.30
2019-04-10T09:10:12.297Z,100254.45
2019-04-10T09:15:18.209Z,100261.56
2019-04-10T09:20:24.794Z,100261.30
2019-04-10T09:25:31.210Z,100267.72
2019-04-10T09:30:37.215Z,100268.98
2019-04-10T09:35:42.856Z,100277.89
2019-04-10T09:40:48.820Z,100275.83
2019-04-10T09:45:54.283Z,100273.22
2019-04-10T09:51:00.291Z,100274.96
2019-04-10T09:56:05.775Z,100278.00
2019-04-10T10:01:15.984Z,100274.06
2019-04-10T10:06:27.140Z,100271.91
2019-04-10T10:11:28.759Z,100280.44
2019-04-10T10:16:35.833Z,100278.95
2019-04-10T10:21:41.515Z,100281.57
2019-04-10T10:26:47.244Z,100278.31
2019-04-10T10:31:53.629Z,100279.45
2019-04-10T10:37:00.143Z,100273.33
2019-04-10T10:42:05.715Z,100285.73
2019-04-10T10:47:11.792Z,100291.21
2019-04-10T10:52:17.552Z,100295.75
2019-04-10T10:57:24.889Z,100298.62
2019-04-10T11:02:30.390Z,100302.87
2019-04-10T11:07:35.951Z,100305.19
2019-04-10T11:12:42.338Z,100305.61
2019-04-10T11:17:47.717Z,100307.56
2019-04-10T11:22:55.835Z,100313.00
2019-04-10T11:28:01.291Z,100320.70
2019-04-10T11:33:08.437Z,100321.50
2019-04-10T11:38:16.070Z,100317.14
2019-04-10T11:43:21.568Z,100321.49
2019-04-10T11:48:29.107Z,100331.20
2019-04-10T11:53:37.480Z,100323.88
2019-04-10T11:58:49.457Z,100330.59
2019-04-10T12:03:51.677Z,100328.44
2019-04-10T12:09:19.470Z,100329.22
2019-04-10T12:14:03.051Z,100338.36
2019-04-10T12:19:08.492Z,100336.44
2019-04-10T12:24:16.035Z,100345.64
2019-04-10T12:29:20.858Z,100342.45
2019-04-10T12:34:26.535Z,100344.55
2019-04-10T12:39:32.196Z,100342.81
2019-04-10T12:44:38.670Z,100346.22
2019-04-10T12:49:44.583Z,100346.97
2019-04-10T12:54:51.195Z,100360.59
2019-04-10T13:00:01.204Z,100364.14
2019-04-10T13:05:05.040Z,100364.94
2019-04-10T13:10:15.993Z,100371.16
2019-04-10T13:15:21.386Z,100374.97
2019-04-10T13:20:26.771Z,100368.22
2019-04-10T13:25:32.494Z,100373.08
2019-04-10T13:30:46.909Z,100384.20
2019-04-10T13:35:46.212Z,100385.57
2019-04-10T13:40:52.215Z,100382.30
2019-04-10T13:45:57.590Z,100386.76
2019-04-10T13:51:03.382Z,100373.04
2019-04-10T13:56:08.846Z,100371.02
2019-04-10T14:01:19.676Z,100375.22
2019-04-10T14:06:27.649Z,100370.90
2019-04-10T14:11:33.355Z,100368.83
2019-04-10T14:16:39.060Z,100368.89
2019-04-10T14:21:45.038Z,100376.56
2019-04-10T14:26:58.528Z,100382.27
2019-04-10T14:32:07.144Z,100393.75
2019-04-10T14:37:13.839Z,100395.12
2019-04-10T14:42:19.190Z,100390.63
2019-04-10T14:47:25.522Z,100386.59
2019-04-10T14:52:31.162Z,100394.77
2019-04-10T14:57:36.942Z,100395.99
2019-04-10T15:02:43.046Z,100402.85
2019-04-10T15:07:48.626Z,100405.22
2019-04-10T15:12:54.035Z,100404.25
2019-04-10T15:17:59.264Z,100405.35
2019-04-10T15:23:05.119Z,100403.67
2019-04-10T15:28:10.520Z,100403.77
2019-04-10T15:33:15.976Z,100407.75
2019-04-10T15:38:21.983Z,100396.23
2019-04-10T15:43:29.438Z,100418.31
2019-04-10T15:48:35.608Z,100416.92
2019-04-10T15:53:41.094Z,100424.28
2019-04-10T15:58:47.881Z,100431.05
2019-04-10T16:03:53.288Z,100432.64
2019-04-10T16:08:58.868Z,100427.63
2019-04-10T16:14:17.015Z,100420.68
2019-04-10T16:19:22.238Z,100416.64
2019-04-10T16:24:28.911Z,100424.37
2019-04-10T16:29:34.757Z,100429.06
2019-04-10T16:34:40.889Z,100422.98
2019-04-10T16:39:57.855Z,100426.02
2019-04-10T16:44:54.958Z,100422.55
2019-04-10T16:50:01.210Z,100421.89
2019-04-10T16:55:08.390Z,100417.22
2019-04-10T17:00:16.682Z,100428.86
2019-04-10T17:05:22.659Z,100430.80
2019-04-10T17:10:32.327Z,100440.20
2019-04-10T17:15:37.736Z,100444.98
2019-04-10T17:20:43.114Z,100442.86
2019-04-10T17:25:48.778Z,100440.47
2019-04-10T17:30:54.805Z,100437.59
2019-04-10T17:36:00.268Z,100448.15
2019-04-10T17:41:07.024Z,100457.69
2019-04-10T17:46:13.242Z,100462.19
2019-04-10T17:51:19.775Z,100462.02
2019-04-10T17:56:28.348Z,100467.55
2019-04-10T18:01:34.737Z,100467.67
2019-04-10T18:06:43.120Z,100466.39
2019-04-10T18:11:47.768Z,100477.03
2019-04-10T18:16:54.094Z,100483.84
2019-04-10T18:22:00.499Z,100482.11
2019-04-10T18:27:05.977Z,100497.59
2019-04-10T18:32:11.768Z,100501.59
2019-04-10T18:37:22.044Z,100504.50
2019-04-10T18:42:26.608Z,100507.52
2019-04-10T18:47:36.066Z,100508.39
2019-04-10T18:52:39.616Z,100521.48
2019-04-10T18:57:45.248Z,100524.92
2019-04-10T19:02:57.779Z,100525.72
2019-04-10T19:08:03.255Z,100531.09
2019-04-10T19:13:09.759Z,100532.20
2019-04-10T19:18:15.286Z,100536.52
2019-04-10T19:23:21.053Z,100555.77
2019-04-10T19:28:33.944Z,100557.64
2019-04-10T19:33:37.262Z,100565.44
2019-04-10T19:38:43.957Z,100569.30
2019-04-10T19:43:50.510Z,100573.41
2019-04-10T19:48:56.084Z,100589.33
2019-04-10T19:54:03.107Z,100585.75
2019-04-10T19:59:08.635Z,100592.03
2019-04-10T20:04:14.500Z,100588.61
2019-04-10T20:09:22.197Z,100588.78
2019-04-10T20:14:28.455Z,100594.34
2019-04-10T20:19:34.871Z,100597.45
2019-04-10T20:24:40.945Z,100597.88
2019-04-10T20:29:47.608Z,100596.05
2019-04-10T20:34:53.868Z,100603.86
2019-04-10T20:40:03.439Z,100611.11
2019-04-10T20:45:09.361Z,100615.16
2019-04-10T20:50:15.424Z,100614.45
2019-04-10T20:55:22.075Z,100611.38
2019-04-10T21:00:30.072Z,100606.81
2019-04-10T21:05:35.911Z,100618.84
2019-04-10T21:10:41.152Z,100618.07
2019-04-10T21:15:46.423Z,100610.65
2019-04-10T21:20:51.828Z,100621.70
2019-04-10T21:25:57.470Z,100622.07
2019-04-10T21:31:22.252Z,100622.69
2019-04-10T21:36:28.394Z,100628.44
2019-04-10T21:41:34.703Z,100626.46
2019-04-10T21:46:40.997Z,100631.78
2019-04-10T21:51:46.406Z,100634.58
2019-04-10T21:56:51.609Z,100628.66
2019-04-10T22:01:57.056Z,100628.66
2019-04-10T22:07:11.874Z,100627.30
2019-04-10T22:12:29.774Z,100633.41
2019-04-10T22:17:29.040Z,100630.41
2019-04-10T22:22:35.085Z,100625.55
2019-04-10T22:27:41.400Z,100623.31
2019-04-10T22:32:47.152Z,100621.22
2019-04-10T22:37:52.470Z,100631.67
2019-04-10T22:42:57.804Z,100629.11
2019-04-10T22:48:04.150Z,100635.81
2019-04-10T22:53:09.762Z,100637.71
2019-04-10T22:58:15.073Z,100635.89
2019-04-10T23:03:20.407Z,100641.13
2019-04-10T23:08:25.578Z,100641.97
2019-04-10T23:13:32.009Z,100651.80
2019-04-10T23:18:37.558Z,100649.64
2019-04-10T23:23:43.306Z,100655.00
2019-04-10T23:28:49.544Z,100651.20
2019-04-10T23:33:54.998Z,100655.30
2019-04-10T23:39:00.151Z,100665.80
2019-04-10T23:44:05.466Z,100660.47
2019-04-10T23:49:11.171Z,100664.95
2019-04-10T23:54:17.263Z,100658.80
2019-04-10T23:59:22.557Z,100664.52
